Time;durP1;ratioP1;P1;durP2;ratioP2;P2;SDS_P1;SDS_P2;PMS_P1;PMS_P2;Temp;Humidity;BMP_temperature;BMP_pressure;BME280_temperature;BME280_humidity;BME280_pressure;Samples;Min_cycle;Max_cycle;Signal;HPM_P1;HPM_P2
2022/06/28 00:01:52;;;;;;;4.83;2.40;;;15.60;1.00;;;;;;5094434;28;20168;-68
2022/06/28 00:04:19;;;;;;;3.93;2.00;;;15.50;1.00;;;;;;5093970;28;20642;-67
2022/06/28 00:06:45;;;;;;;5.83;2.60;;;15.50;1.00;;;;;;5093909;28;20218;-68
2022/06/28 00:09:11;;;;;;;4.67;2.00;;;15.50;1.00;;;;;;5094001;28;20207;-68
2022/06/28 00:11:38;;;;;;;4.60;1.97;;;15.50;1.00;;;;;;5093794;28;20229;-68
2022/06/28 00:17:07;;;;;;;4.60;1.60;;;15.50;1.00;;;;;;5094211;28;20201;-68
2022/06/28 00:19:32;;;;;;;6.33;2.30;;;15.50;1.00;;;;;;5094087;28;20183;-68
2022/06/28 00:21:58;;;;;;;5.00;1.70;;;15.60;1.00;;;;;;5094017;28;20255;-68
2022/06/28 00:24:24;;;;;;;3.20;1.60;;;15.70;1.00;;;;;;5092706;28;20592;-68
2022/06/28 00:26:50;;;;;;;8.03;1.93;;;15.70;1.00;;;;;;5093122;28;20176;-68
2022/06/28 00:29:16;;;;;;;3.87;1.90;;;15.70;1.00;;;;;;5093699;28;20563;-68
2022/06/28 00:31:42;;;;;;;4.77;1.70;;;15.80;1.00;;;;;;5093695;28;20180;-68
2022/06/28 00:34:08;;;;;;;7.93;1.93;;;15.70;1.00;;;;;;5093786;28;20692;-68
2022/06/28 00:36:34;;;;;;;4.53;1.63;;;15.70;1.00;;;;;;5094006;28;20244;-68
2022/06/28 00:39:00;;;;;;;3.83;2.20;;;15.70;1.00;;;;;;5093786;28;20168;-68
2022/06/28 00:41:26;;;;;;;5.57;2.10;;;15.70;1.00;;;;;;5093311;28;20172;-68
2022/06/28 00:43:53;;;;;;;3.33;1.73;;;15.80;1.00;;;;;;5093469;28;20194;-68
2022/06/28 00:46:19;;;;;;;7.30;1.80;;;15.80;1.00;;;;;;5093513;28;20209;-67
2022/06/28 00:48:46;;;;;;;5.07;2.03;;;15.90;1.00;;;;;;5093442;28;20213;-67
2022/06/28 00:51:11;;;;;;;3.27;1.73;;;15.90;1.00;;;;;;5093704;28;20260;-67
2022/06/28 00:53:37;;;;;;;5.60;2.47;;;15.90;1.00;;;;;;5093586;28;20253;-67
2022/06/28 00:56:03;;;;;;;6.17;2.00;;;15.90;1.00;;;;;;5093133;28;20679;-67
2022/06/28 00:58:28;;;;;;;6.63;1.90;;;15.80;1.00;;;;;;5093372;28;20190;-67
2022/06/28 01:00:54;;;;;;;6.30;1.97;;;15.80;1.00;;;;;;5093224;28;20186;-67
2022/06/28 01:03:23;;;;;;;2.17;1.80;;;15.80;1.00;;;;;;5093040;28;20241;-67
2022/06/28 01:05:50;;;;;;;4.93;1.93;;;15.70;1.00;;;;;;5093053;28;20191;-69
2022/06/28 01:08:15;;;;;;;4.07;1.70;;;15.70;1.00;;;;;;5093196;28;20660;-68
2022/06/28 01:10:42;;;;;;;4.40;1.90;;;15.70;1.00;;;;;;5092851;28;20297;-67
2022/06/28 01:13:08;;;;;;;5.63;2.00;;;15.70;1.00;;;;;;5093223;28;20164;-68
2022/06/28 01:15:35;;;;;;;4.40;1.53;;;15.70;1.00;;;;;;5093275;28;20679;-68
2022/06/28 01:18:02;;;;;;;3.17;1.60;;;15.70;1.00;;;;;;5093362;28;20184;-68
2022/06/28 01:20:28;;;;;;;3.60;1.70;;;15.70;1.00;;;;;;5093319;28;20180;-68
2022/06/28 01:22:55;;;;;;;7.07;1.97;;;15.70;1.00;;;;;;5092936;28;20654;-68
2022/06/28 01:25:24;;;;;;;4.37;1.77;;;15.70;1.00;;;;;;5092825;28;20176;-68
2022/06/28 01:27:55;;;;;;;4.27;1.80;;;15.60;1.00;;;;;;5093125;28;20175;-67
2022/06/28 01:30:20;;;;;;;4.77;1.97;;;15.60;1.00;;;;;;5093278;28;20215;-68
2022/06/28 01:32:46;;;;;;;4.83;1.60;;;15.60;1.00;;;;;;5093172;28;20642;-68
2022/06/28 01:35:12;;;;;;;3.33;1.60;;;15.50;1.00;;;;;;5093052;28;20176;-68
2022/06/28 01:37:38;;;;;;;2.77;1.60;;;15.40;6.00;;;;;;5094226;28;20176;-68
2022/06/28 01:40:05;;;;;;;3.10;1.53;;;15.40;7.80;;;;;;5096715;28;20172;-68
2022/06/28 01:42:31;;;;;;;5.03;1.90;;;15.40;6.90;;;;;;5096817;28;20172;-68
2022/06/28 01:44:58;;;;;;;6.23;1.80;;;15.30;12.40;;;;;;5096868;28;20731;-67
2022/06/28 01:47:26;;;;;;;3.17;1.60;;;15.20;14.70;;;;;;5096949;28;20176;-66
2022/06/28 01:49:52;;;;;;;4.37;1.87;;;15.20;18.50;;;;;;5095576;28;20675;-68
2022/06/28 01:52:18;;;;;;;5.13;2.03;;;15.10;18.60;;;;;;5096852;28;20214;-67
2022/06/28 01:54:44;;;;;;;7.63;1.70;;;15.10;17.50;;;;;;5096383;28;20203;-67
2022/06/28 01:57:10;;;;;;;3.63;1.87;;;15.10;20.80;;;;;;5096772;28;20172;-67
2022/06/28 01:59:37;;;;;;;8.40;1.90;;;15.10;21.60;;;;;;5096468;28;20232;-67
2022/06/28 02:02:03;;;;;;;4.37;2.00;;;15.10;22.60;;;;;;5096650;28;20439;-67
2022/06/28 02:04:29;;;;;;;5.53;2.00;;;15.00;25.30;;;;;;5096591;28;20168;-67
2022/06/28 02:06:56;;;;;;;4.53;2.00;;;14.90;28.20;;;;;;5096273;28;20234;-67
2022/06/28 02:09:22;;;;;;;3.30;1.80;;;14.90;33.30;;;;;;5096038;28;20206;-67
2022/06/28 02:11:49;;;;;;;3.97;1.83;;;14.90;34.10;;;;;;5096372;28;20172;-67
2022/06/28 02:14:14;;;;;;;10.17;2.30;;;14.90;31.30;;;;;;5096312;28;20175;-67
2022/06/28 02:16:40;;;;;;;4.03;2.03;;;15.00;27.30;;;;;;5096672;28;20167;-67
2022/06/28 02:19:06;;;;;;;3.53;1.80;;;15.00;25.30;;;;;;5096465;28;20194;-68
2022/06/28 02:21:44;;;;;;;4.57;1.77;;;15.00;20.40;;;;;;5096294;28;20267;-68
2022/06/28 02:24:11;;;;;;;3.73;2.00;;;14.90;21.50;;;;;;5096301;28;20202;-67
2022/06/28 02:26:37;;;;;;;4.20;2.03;;;14.80;27.70;;;;;;5096276;28;20623;-67
2022/06/28 02:29:04;;;;;;;3.50;1.80;;;14.90;25.20;;;;;;5096237;28;20164;-68
2022/06/28 02:31:30;;;;;;;7.23;1.97;;;14.80;27.40;;;;;;5096127;28;20172;-68
2022/06/28 02:33:57;;;;;;;3.60;1.60;;;14.80;29.20;;;;;;5096186;28;20207;-67
2022/06/28 02:41:36;;;;;;;2.67;1.80;;;14.70;39.60;;;;;;5095640;28;20168;-68
2022/06/28 02:44:02;;;;;;;4.13;1.83;;;14.70;40.10;;;;;;5095977;28;20617;-68
2022/06/28 02:46:28;;;;;;;5.37;1.93;;;14.60;41.80;;;;;;5095779;28;20175;-68
2022/06/28 02:48:54;;;;;;;5.70;2.30;;;14.70;44.20;;;;;;5095133;28;20249;-67
2022/06/28 02:51:20;;;;;;;3.63;1.90;;;14.60;45.30;;;;;;5093994;28;20172;-68
2022/06/28 02:53:49;;;;;;;3.07;1.70;;;14.60;46.10;;;;;;5095446;28;20160;-67
2022/06/28 02:56:15;;;;;;;6.47;1.80;;;14.50;53.80;;;;;;5095499;28;20199;-67
2022/06/28 02:58:40;;;;;;;5.77;2.00;;;14.50;53.60;;;;;;5095534;28;20171;-67
2022/06/28 03:01:06;;;;;;;6.53;1.93;;;14.40;57.90;;;;;;5095609;28;20160;-67
2022/06/28 03:03:32;;;;;;;6.33;2.30;;;14.40;57.30;;;;;;5095476;28;20178;-68
2022/06/28 03:05:58;;;;;;;5.47;2.03;;;14.40;57.40;;;;;;5094811;28;20175;-68
2022/06/28 03:08:24;;;;;;;5.40;1.90;;;14.40;60.00;;;;;;5093974;28;20176;-68
2022/06/28 03:10:50;;;;;;;3.10;1.90;;;14.40;66.00;;;;;;5094932;28;20203;-68
2022/06/28 03:13:15;;;;;;;4.10;2.00;;;14.30;68.30;;;;;;5094139;28;20193;-67
2022/06/28 03:15:41;;;;;;;4.17;2.10;;;14.30;69.00;;;;;;5095374;28;20618;-67
2022/06/28 03:18:07;;;;;;;6.73;2.37;;;14.30;69.40;;;;;;5094741;28;20175;-67
2022/06/28 03:20:32;;;;;;;6.40;2.10;;;14.30;71.70;;;;;;5094579;28;20167;-67
2022/06/28 03:22:58;;;;;;;4.00;2.13;;;14.30;72.80;;;;;;5095070;28;20183;-67
2022/06/28 03:25:24;;;;;;;5.63;2.03;;;14.30;73.00;;;;;;5094962;28;20645;-67
2022/06/28 03:27:50;;;;;;;7.10;2.60;;;14.40;71.40;;;;;;5095054;28;20729;-67
2022/06/28 03:30:16;;;;;;;5.70;2.20;;;14.40;68.00;;;;;;5094582;28;20285;-67
2022/06/28 03:32:41;;;;;;;5.37;1.97;;;14.40;64.00;;;;;;5094712;28;20246;-66
2022/06/28 03:35:08;;;;;;;5.83;2.03;;;14.40;64.90;;;;;;5094569;28;20168;-67
2022/06/28 03:37:36;;;;;;;7.30;2.40;;;14.40;66.00;;;;;;5093349;28;20172;-66
2022/06/28 03:40:02;;;;;;;8.77;2.43;;;14.40;74.30;;;;;;5094607;28;20172;-67
2022/06/28 03:42:28;;;;;;;3.63;1.97;;;14.40;78.30;;;;;;5094365;28;20175;-66
2022/06/28 03:44:53;;;;;;;8.17;2.17;;;14.40;76.10;;;;;;5094541;28;20168;-66
2022/06/28 03:47:19;;;;;;;4.50;1.97;;;14.50;79.10;;;;;;5094483;28;20214;-67
2022/06/28 03:49:47;;;;;;;5.47;1.90;;;14.80;78.40;;;;;;5092585;28;20323;-67
2022/06/28 03:52:13;;;;;;;6.00;2.30;;;15.10;60.10;;;;;;5094192;28;20167;-68
2022/06/28 03:54:39;;;;;;;4.67;2.13;;;15.40;49.80;;;;;;5093877;28;20196;-67
2022/06/28 03:57:05;;;;;;;3.73;1.90;;;15.80;34.70;;;;;;5094125;28;20179;-68
2022/06/28 03:59:31;;;;;;;6.37;2.17;;;16.40;21.10;;;;;;5093584;28;20245;-68
2022/06/28 04:01:57;;;;;;;7.87;2.23;;;17.00;2.30;;;;;;5093500;28;20631;-67
2022/06/28 04:04:22;;;;;;;8.83;2.50;;;17.60;1.00;;;;;;5093548;28;20556;-68
2022/06/28 04:06:48;;;;;;;3.77;1.90;;;18.20;1.00;;;;;;5093506;28;20247;-67
2022/06/28 04:09:14;;;;;;;6.73;2.40;;;18.60;1.00;;;;;;5093564;28;20663;-67
2022/06/28 04:11:39;;;;;;;8.03;2.40;;;19.20;1.00;;;;;;5093716;28;20639;-68
2022/06/28 04:14:05;;;;;;;6.00;2.33;;;19.50;1.00;;;;;;5093744;28;20164;-68
2022/06/28 04:16:32;;;;;;;7.57;2.50;;;20.20;1.00;;;;;;5093825;28;20172;-68
2022/06/28 04:18:58;;;;;;;4.93;2.10;;;20.50;4.30;;;;;;5093198;28;20176;-68
2022/06/28 04:21:23;;;;;;;3.55;1.75;;;21.40;1.00;;;;;;5093716;28;20172;-68
2022/06/28 04:23:49;;;;;;;5.47;2.08;;;22.10;1.00;;;;;;5093585;28;20176;-69
2022/06/28 04:26:15;;;;;;;10.95;2.40;;;22.70;99.90;;;;;;5093902;28;20253;-69
2022/06/28 04:28:41;;;;;;;5.68;2.17;;;23.20;1.00;;;;;;5093466;28;20168;-68
2022/06/28 04:31:07;;;;;;;5.72;2.00;;;23.30;92.60;;;;;;5093352;28;20654;-69
2022/06/28 04:33:34;;;;;;;9.70;2.15;;;23.90;99.90;;;;;;5092543;28;20176;-69
2022/06/28 04:36:00;;;;;;;3.50;1.85;;;24.30;99.90;;;;;;5093371;28;20182;-68
2022/06/28 04:38:26;;;;;;;10.85;2.28;;;25.00;1.00;;;;;;5093360;28;20172;-70
2022/06/28 04:40:51;;;;;;;8.35;2.30;;;25.10;1.00;;;;;;5092917;28;20176;-69
2022/06/28 04:43:17;;;;;;;6.13;2.30;;;25.20;1.00;;;;;;5092856;28;20164;-69
2022/06/28 04:45:42;;;;;;;8.32;1.80;;;25.50;1.00;;;;;;5092649;28;20608;-69
2022/06/28 04:48:08;;;;;;;3.63;1.85;;;25.80;1.00;;;;;;5092286;28;20237;-69
2022/06/28 04:50:34;;;;;;;5.63;2.00;;;26.10;99.90;;;;;;5092567;28;20218;-69
2022/06/28 04:52:59;;;;;;;6.57;2.30;;;25.80;99.90;;;;;;5092502;28;20210;-69
2022/06/28 04:55:25;;;;;;;8.95;2.30;;;26.30;99.90;;;;;;5093073;28;20245;-70
2022/06/28 04:57:50;;;;;;;10.52;3.28;;;26.90;99.90;;;;;;5092606;28;20164;-70
2022/06/28 05:00:17;;;;;;;7.55;2.67;;;27.80;99.90;;;;;;5092907;28;20212;-69
2022/06/28 05:02:43;;;;;;;5.43;2.60;;;28.00;99.90;;;;;;5092434;28;20635;-69
2022/06/28 05:05:09;;;;;;;6.60;2.25;;;28.60;99.90;;;;;;5093045;28;20180;-70
2022/06/28 05:07:36;;;;;;;6.18;2.10;;;29.20;99.90;;;;;;5092757;28;20746;-70
2022/06/28 05:10:03;;;;;;;4.40;2.03;;;29.50;99.90;;;;;;5092620;28;20216;-69
2022/06/28 05:12:29;;;;;;;6.68;2.30;;;29.60;99.90;;;;;;5096452;28;20171;-69
2022/06/28 05:14:55;;;;;;;3.42;1.80;;;29.90;99.90;;;;;;5099280;28;20164;-70
2022/06/28 05:17:20;;;;;;;11.05;2.50;;;29.60;99.90;;;;;;5098839;28;20519;-70
2022/06/28 05:19:46;;;;;;;8.18;2.80;;;29.30;99.90;;;;;;5099384;28;20182;-70
2022/06/28 05:22:12;;;;;;;7.07;2.15;;;30.00;99.90;;;;;;5097677;28;20264;-70
2022/06/28 05:24:38;;;;;;;5.75;2.13;;;30.30;99.90;;;;;;5098708;28;20190;-70
2022/06/28 05:27:05;;;;;;;3.67;1.92;;;30.30;99.90;;;;;;5098919;28;20513;-70
2022/06/28 05:29:31;;;;;;;4.68;1.95;;;30.90;99.90;;;;;;5099405;28;20222;-70
2022/06/28 05:31:56;;;;;;;7.70;2.60;;;31.00;99.90;;;;;;5098790;28;20168;-70
2022/06/28 05:34:23;;;;;;;4.70;1.92;;;31.80;99.90;;;;;;5099017;28;20168;-71
2022/06/28 05:36:48;;;;;;;6.25;1.98;;;32.00;99.90;;;;;;5099124;28;20201;-71
2022/06/28 05:39:15;;;;;;;7.18;2.15;;;31.00;99.90;;;;;;5098603;28;20172;-70
2022/06/28 05:41:43;;;;;;;5.43;2.40;;;31.20;99.90;;;;;;5099227;28;20190;-70
2022/06/28 05:44:11;;;;;;;4.95;1.95;;;32.30;99.90;;;;;;5099467;28;20168;-70
2022/06/28 05:46:39;;;;;;;6.88;2.30;;;31.40;99.90;;;;;;5098201;28;20255;-70
2022/06/28 05:49:05;;;;;;;7.35;2.30;;;31.60;99.90;;;;;;5099415;28;20167;-71
2022/06/28 05:51:31;;;;;;;5.22;2.63;;;30.90;99.90;;;;;;5098252;28;20196;-69
2022/06/28 05:53:57;;;;;;;6.55;2.50;;;31.40;99.90;;;;;;5098914;28;20176;-70
2022/06/28 05:56:22;;;;;;;8.68;2.70;;;32.10;99.90;;;;;;5098771;28;20198;-70
2022/06/28 05:58:48;;;;;;;5.20;2.15;;;32.60;99.90;;;;;;5098194;28;20239;-71
2022/06/28 06:01:14;;;;;;;6.82;2.28;;;32.50;99.90;;;;;;5098736;28;20168;-70
2022/06/28 06:03:39;;;;;;;5.25;2.17;;;33.10;99.90;;;;;;5098336;28;20485;-71
2022/06/28 06:06:05;;;;;;;8.43;2.10;;;33.10;99.60;;;;;;5098356;28;20746;-71
2022/06/28 06:08:32;;;;;;;6.72;2.55;;;33.40;95.70;;;;;;5099027;28;20627;-70
2022/06/28 06:10:58;;;;;;;6.32;2.35;;;34.10;91.30;;;;;;5097776;28;20195;-71
2022/06/28 06:13:23;;;;;;;4.55;2.20;;;34.50;83.60;;;;;;5097800;28;20320;-70
2022/06/28 06:15:49;;;;;;;5.15;2.15;;;33.50;78.00;;;;;;5098161;28;20507;-71
2022/06/28 06:18:14;;;;;;;5.25;1.70;;;34.20;68.80;;;;;;5098658;28;20630;-71
2022/06/28 06:20:40;;;;;;;8.85;2.28;;;34.60;61.80;;;;;;5098263;28;20214;-71
2022/06/28 06:23:06;;;;;;;6.10;2.40;;;34.40;58.20;;;;;;5096676;28;20568;-71
2022/06/28 06:25:31;;;;;;;9.38;2.30;;;33.50;56.00;;;;;;5095583;28;20199;-70
2022/06/28 06:27:57;;;;;;;7.10;2.20;;;32.70;56.90;;;;;;5095035;28;20176;-71
2022/06/28 06:30:22;;;;;;;6.10;2.13;;;33.20;58.70;;;;;;5094788;28;20207;-71
2022/06/28 06:32:48;;;;;;;5.50;1.90;;;32.80;57.10;;;;;;5094985;28;20195;-71
2022/06/28 06:35:14;;;;;;;5.75;2.30;;;32.60;57.70;;;;;;5093259;28;20176;-71
2022/06/28 06:37:39;;;;;;;4.05;2.22;;;32.90;53.60;;;;;;5094029;28;20259;-72
2022/06/28 06:40:05;;;;;;;4.30;1.83;;;33.50;51.60;;;;;;5094676;28;20168;-70
2022/06/28 06:42:31;;;;;;;4.13;2.17;;;33.90;50.00;;;;;;5094154;28;20752;-72
2022/06/28 06:44:58;;;;;;;4.32;1.63;;;31.90;45.80;;;;;;5094164;28;20185;-71
2022/06/28 06:47:24;;;;;;;3.05;1.63;;;31.20;49.30;;;;;;5094701;28;20328;-71
2022/06/28 06:49:49;;;;;;;5.88;2.53;;;30.80;48.20;;;;;;5094641;28;20661;-71
2022/06/28 06:52:15;;;;;;;8.50;1.83;;;31.20;50.60;;;;;;5094769;28;20168;-71
2022/06/28 06:54:40;;;;;;;4.07;1.70;;;32.30;46.40;;;;;;5094674;28;20206;-71
2022/06/28 06:57:06;;;;;;;6.32;1.63;;;31.60;43.40;;;;;;5094296;28;20579;-71
2022/06/28 06:59:32;;;;;;;5.65;1.83;;;31.90;45.00;;;;;;5094261;28;20322;-71
2022/06/28 07:01:57;;;;;;;7.50;1.77;;;32.40;43.40;;;;;;5094810;28;20180;-72
2022/06/28 07:04:23;;;;;;;6.38;1.80;;;33.40;40.80;;;;;;5094482;28;20608;-72
2022/06/28 07:06:49;;;;;;;5.78;1.95;;;32.90;38.20;;;;;;5092348;28;20227;-71
2022/06/28 07:09:14;;;;;;;4.78;1.73;;;32.90;35.70;;;;;;5094028;28;20176;-70
2022/06/28 07:11:41;;;;;;;6.95;1.70;;;33.30;32.90;;;;;;5093766;28;20172;-70
2022/06/28 07:14:06;;;;;;;5.97;2.35;;;33.10;33.40;;;;;;5093218;28;20168;-69
2022/06/28 07:16:32;;;;;;;3.65;1.75;;;33.60;29.90;;;;;;5094023;28;20221;-70
2022/06/28 07:18:58;;;;;;;5.68;1.80;;;34.10;26.40;;;;;;5085298;28;20176;-71
2022/06/28 07:21:24;;;;;;;3.92;1.50;;;34.40;23.90;;;;;;5099124;28;20187;-71
2022/06/28 07:23:50;;;;;;;5.00;2.10;;;35.00;19.50;;;;;;5095275;28;20179;-72
2022/06/28 07:26:16;;;;;;;3.38;1.60;;;35.20;37.10;;;;;;5092033;28;20573;-72
2022/06/28 07:28:42;;;;;;;4.97;1.55;;;35.10;16.10;;;;;;5099584;28;20179;-71
2022/06/28 07:31:07;;;;;;;4.72;1.85;;;34.40;16.50;;;;;;5082309;28;20268;-72
2022/06/28 07:33:33;;;;;;;2.67;1.30;;;34.80;14.50;;;;;;5084767;28;20175;-71
2022/06/28 07:35:59;;;;;;;5.47;1.70;;;35.00;10.60;;;;;;5090688;28;20539;-73
2022/06/28 07:38:25;;;;;;;4.75;2.15;;;32.80;14.90;;;;;;5104171;28;20222;-71
2022/06/28 07:40:50;;;;;;;4.47;1.50;;;33.10;16.70;;;;;;5102976;28;20187;-71
2022/06/28 07:43:16;;;;;;;4.53;1.50;;;32.80;15.60;;;;;;5104732;28;20180;-71
2022/06/28 07:45:41;;;;;;;6.57;1.75;;;30.60;19.10;;;;;;5107148;28;20531;-70
2022/06/28 07:48:07;;;;;;;4.30;1.67;;;31.10;20.70;;;;;;5093853;28;20201;-71
2022/06/28 07:53:18;;;;;;;4.50;1.60;;;32.10;20.60;;;;;;5104281;28;20676;-70
2022/06/28 07:55:44;;;;;;;4.53;1.60;;;32.90;17.80;;;;;;5106023;28;20192;-70
2022/06/28 07:58:10;;;;;;;3.72;1.33;;;32.20;16.70;;;;;;5106441;28;20178;-70
2022/06/28 08:00:36;;;;;;;5.68;2.17;;;33.10;15.40;;;;;;5101640;28;20241;-71
2022/06/28 08:03:02;;;;;;;3.50;2.00;;;34.10;13.40;;;;;;5100692;28;20168;-71
2022/06/28 08:05:28;;;;;;;4.28;2.20;;;34.40;12.40;;;;;;5105089;28;20176;-70
2022/06/28 08:07:53;;;;;;;3.28;2.33;;;35.40;10.10;;;;;;5094140;28;20218;-70
2022/06/28 08:10:19;;;;;;;5.65;2.38;;;35.30;5.00;;;;;;5096933;28;20195;-71
2022/06/28 08:12:45;;;;;;;3.92;2.33;;;35.30;20.10;;;;;;5101177;28;20255;-70
2022/06/28 08:15:11;;;;;;;2.58;2.38;;;35.70;4.00;;;;;;5102996;28;20170;-69
2022/06/28 08:17:37;;;;;;;7.13;3.40;;;36.10;1.70;;;;;;5098619;28;20218;-71
2022/06/28 08:20:04;;;;;;;5.57;2.90;;;37.10;1.00;;;;;;5098705;28;20179;-70
2022/06/28 08:22:29;;;;;;;6.15;3.13;;;37.30;1.00;;;;;;5098242;28;20634;-70
2022/06/28 08:24:55;;;;;;;6.43;3.20;;;37.70;1.00;;;;;;5100268;28;20174;-70
2022/06/28 08:27:21;;;;;;;3.15;2.30;;;37.70;1.00;;;;;;5099808;28;20643;-70
2022/06/28 08:29:47;;;;;;;2.80;2.42;;;37.90;1.00;;;;;;5087465;28;20203;-70
2022/06/28 08:32:13;;;;;;;4.30;1.92;;;37.30;1.00;;;;;;5095267;28;20179;-72
2022/06/28 08:34:39;;;;;;;2.00;1.85;;;36.50;1.00;;;;;;5099903;28;20296;-71
2022/06/28 08:37:06;;;;;;;7.35;2.40;;;35.40;1.00;;;;;;5101590;28;20167;-71
2022/06/28 08:39:32;;;;;;;4.43;2.13;;;35.20;1.00;;;;;;5093561;28;20175;-70
2022/06/28 08:42:03;;;;;;;4.43;2.00;;;35.20;1.00;;;;;;5106363;28;20250;-70
2022/06/28 08:44:33;;;;;;;4.55;1.67;;;35.70;1.00;;;;;;5105612;28;20167;-70
2022/06/28 08:47:00;;;;;;;3.13;1.75;;;36.40;1.00;;;;;;5102523;28;20194;-71
2022/06/28 08:49:41;;;;;;;1.92;1.40;;;36.40;1.00;;;;;;5104760;28;20217;-71
2022/06/28 08:52:08;;;;;;;2.22;1.52;;;35.60;1.00;;;;;;5105969;28;20159;-71
2022/06/28 08:54:35;;;;;;;2.22;1.67;;;36.10;1.00;;;;;;5101910;28;20260;-71
2022/06/28 08:57:01;;;;;;;4.55;2.10;;;36.60;1.00;;;;;;5082635;28;20236;-70
2022/06/28 08:59:27;;;;;;;1.95;1.50;;;37.10;1.00;;;;;;5101691;28;20630;-72
2022/06/28 09:01:53;;;;;;;5.63;2.13;;;36.80;1.00;;;;;;5102243;28;20215;-71
2022/06/28 09:04:19;;;;;;;3.03;1.40;;;35.90;1.00;;;;;;5087432;28;20580;-70
2022/06/28 09:06:44;;;;;;;3.42;1.80;;;33.30;1.00;;;;;;5107553;28;20293;-70
2022/06/28 09:09:10;;;;;;;2.78;1.33;;;32.80;1.00;;;;;;5097672;28;20171;-70
2022/06/28 09:11:41;;;;;;;2.75;1.40;;;32.70;1.00;;;;;;5098576;28;20230;-70
2022/06/28 09:14:29;;;;;;;5.50;1.40;;;33.50;1.00;;;;;;5104200;28;20167;-71
2022/06/28 09:16:56;;;;;;;2.75;1.50;;;33.30;1.00;;;;;;5075002;28;20167;-71
2022/06/28 09:19:35;;;;;;;4.03;1.27;;;33.30;1.00;;;;;;5083635;28;20225;-70
2022/06/28 09:22:05;;;;;;;2.88;1.10;;;31.20;1.00;;;;;;5101939;28;20183;-72
2022/06/28 09:24:32;;;;;;;2.05;1.10;;;29.90;1.00;;;;;;5095083;28;20559;-70
2022/06/28 09:27:05;;;;;;;1.30;1.15;;;29.50;6.10;;;;;;5108512;28;20176;-70
2022/06/28 09:29:50;;;;;;;2.17;1.10;;;30.20;7.50;;;;;;5087394;28;20294;-70
2022/06/28 09:32:24;;;;;;;3.10;1.55;;;31.70;3.70;;;;;;5086197;28;20165;-71
2022/06/28 09:34:57;;;;;;;2.95;1.35;;;32.30;4.50;;;;;;5091744;28;20258;-69
2022/06/28 09:37:41;;;;;;;2.33;1.25;;;30.70;7.90;;;;;;5104008;28;20176;-70
2022/06/28 09:40:12;;;;;;;2.10;1.10;;;31.30;6.00;;;;;;5105935;28;20177;-70
2022/06/28 09:42:39;;;;;;;1.30;1.20;;;31.00;1.00;;;;;;5092408;28;20199;-71
2022/06/28 09:45:06;;;;;;;1.45;1.17;;;31.70;6.90;;;;;;5097273;28;20164;-70
2022/06/28 09:47:31;;;;;;;4.18;1.50;;;32.10;3.90;;;;;;5102874;28;20176;-69
2022/06/28 09:49:57;;;;;;;2.17;1.13;;;31.80;6.20;;;;;;5104121;28;20753;-71
2022/06/28 09:52:28;;;;;;;3.20;1.52;;;31.40;5.60;;;;;;5095252;28;20172;-70
2022/06/28 09:55:00;;;;;;;2.75;1.38;;;31.10;7.60;;;;;;5078207;28;20236;-71
2022/06/28 09:57:27;;;;;;;1.48;1.35;;;30.70;8.60;;;;;;5102502;28;20180;-71
2022/06/28 09:59:54;;;;;;;3.30;1.50;;;31.30;11.00;;;;;;5106198;28;20258;-71
2022/06/28 10:02:19;;;;;;;4.65;1.30;;;30.80;12.00;;;;;;5098386;28;20222;-71
2022/06/28 10:04:46;;;;;;;1.83;1.17;;;30.80;8.50;;;;;;5112069;28;20630;-69
2022/06/28 10:07:12;;;;;;;2.47;1.10;;;30.60;11.00;;;;;;5100908;28;20215;-70
2022/06/28 10:09:38;;;;;;;2.25;1.20;;;31.30;9.90;;;;;;5106012;28;20230;-70
2022/06/28 10:15:02;;;;;;;4.95;1.40;;;30.80;11.10;;;;;;5094084;28;20218;-72
2022/06/28 10:17:33;;;;;;;2.38;1.00;;;29.70;15.30;;;;;;5095460;28;20168;-70
2022/06/28 10:20:03;;;;;;;2.88;1.10;;;30.10;18.50;;;;;;5108188;28;20175;-71
2022/06/28 10:22:28;;;;;;;4.00;1.20;;;30.90;15.40;;;;;;5098125;28;20254;-71
2022/06/28 10:25:05;;;;;;;1.58;1.15;;;31.00;12.40;;;;;;5110994;28;20281;-70
2022/06/28 10:27:44;;;;;;;2.40;1.40;;;30.70;14.30;;;;;;5103726;28;20167;-70
2022/06/28 10:30:26;;;;;;;1.65;1.30;;;30.20;18.60;;;;;;5098125;28;20731;-71
2022/06/28 10:32:55;;;;;;;1.50;1.40;;;31.00;16.00;;;;;;5111867;28;20175;-70
2022/06/28 10:35:32;;;;;;;2.05;1.17;;;31.30;14.50;;;;;;5101951;28;20167;-69
2022/06/28 10:38:09;;;;;;;1.67;1.33;;;30.70;15.70;;;;;;5101938;28;20168;-70
2022/06/28 10:40:41;;;;;;;2.30;1.20;;;29.90;18.60;;;;;;5111047;28;20170;-69
2022/06/28 10:43:08;;;;;;;1.98;1.58;;;29.60;16.20;;;;;;5100180;28;20175;-69
2022/06/28 10:46:04;;;;;;;3.20;1.20;;;29.10;23.40;;;;;;5105595;28;20194;-69
2022/06/28 10:48:31;;;;;;;1.40;1.20;;;28.20;28.70;;;;;;5093486;28;20207;-68
2022/06/28 10:51:03;;;;;;;2.03;1.20;;;27.90;30.10;;;;;;5098130;28;20202;-68
2022/06/28 10:53:33;;;;;;;1.92;1.20;;;27.60;38.70;;;;;;5105670;28;20176;-70
2022/06/28 10:56:16;;;;;;;1.10;1.00;;;27.80;41.70;;;;;;5107118;28;20222;-69
2022/06/28 10:58:59;;;;;;;9.88;2.20;;;28.90;42.20;;;;;;5092020;28;20179;-68
2022/06/28 11:01:40;;;;;;;3.80;1.48;;;29.80;36.10;;;;;;5105681;28;20176;-70
2022/06/28 11:04:23;;;;;;;3.38;1.40;;;29.30;35.80;;;;;;5106905;28;20706;-69
2022/06/28 11:07:05;;;;;;;3.83;1.38;;;29.30;38.70;;;;;;5098012;27;20240;-69
2022/06/28 11:09:38;;;;;;;2.72;1.67;;;29.70;39.90;;;;;;5104510;28;20724;-70
2022/06/28 11:12:10;;;;;;;1.42;1.05;;;28.80;40.30;;;;;;5107490;28;20175;-69
2022/06/28 11:14:51;;;;;;;2.03;1.42;;;28.40;39.90;;;;;;5097543;28;20168;-70
2022/06/28 11:17:22;;;;;;;2.78;1.33;;;28.20;43.00;;;;;;5106269;27;20287;-70
2022/06/28 11:19:53;;;;;;;3.28;1.20;;;28.90;45.10;;;;;;5091339;28;20179;-69
2022/06/28 11:22:23;;;;;;;5.70;1.48;;;29.60;40.30;;;;;;5093873;28;20187;-70
2022/06/28 11:24:49;;;;;;;3.67;1.40;;;28.70;41.80;;;;;;5110457;28;20163;-70
2022/06/28 11:27:21;;;;;;;1.45;1.27;;;28.00;49.20;;;;;;5100437;28;20657;-70
2022/06/28 11:30:05;;;;;;;1.52;1.33;;;28.10;51.50;;;;;;5087848;28;20208;-70
2022/06/28 11:32:34;;;;;;;2.95;1.30;;;28.50;50.90;;;;;;5086291;28;20180;-69
2022/06/28 11:35:20;;;;;;;1.50;1.10;;;29.00;46.60;;;;;;5081216;28;20543;-70
2022/06/28 11:37:58;;;;;;;4.50;1.92;;;29.60;38.60;;;;;;5094149;28;20186;-69
2022/06/28 11:40:25;;;;;;;2.38;1.40;;;30.40;35.30;;;;;;5093753;28;20661;-70
2022/06/28 11:43:04;;;;;;;2.15;1.13;;;30.50;29.80;;;;;;5094848;28;20232;-70
2022/06/28 11:45:31;;;;;;;3.10;1.42;;;30.30;28.80;;;;;;5093555;28;20160;-69
2022/06/28 11:48:02;;;;;;;3.70;1.40;;;30.70;29.20;;;;;;5092541;28;20231;-70
2022/06/28 11:50:28;;;;;;;1.55;1.42;;;31.10;27.40;;;;;;5092799;28;20531;-70
2022/06/28 11:52:55;;;;;;;4.55;1.60;;;30.10;26.80;;;;;;5094809;28;20182;-70
2022/06/28 11:55:37;;;;;;;5.50;1.60;;;29.70;28.60;;;;;;5108918;28;20627;-69
2022/06/28 11:58:15;;;;;;;1.08;1.08;;;28.10;36.90;;;;;;5089804;28;20270;-70
2022/06/28 12:01:00;;;;;;;2.70;1.50;;;27.00;38.90;;;;;;5093575;28;20209;-69
2022/06/28 12:03:26;;;;;;;3.33;1.70;;;27.00;47.60;;;;;;5089724;28;20191;-69
2022/06/28 12:05:57;;;;;;;2.50;1.80;;;27.30;48.00;;;;;;5085458;28;20233;-70
2022/06/28 12:08:43;;;;;;;1.60;1.42;;;27.30;54.80;;;;;;5078413;28;20636;-70
2022/06/28 12:11:27;;;;;;;2.10;1.60;;;27.10;53.60;;;;;;5087208;28;20199;-70
2022/06/28 12:14:05;;;;;;;3.80;1.50;;;26.80;61.30;;;;;;5111916;28;20185;-70
2022/06/28 12:16:34;;;;;;;2.60;1.65;;;26.90;65.90;;;;;;5085867;27;20188;-70
2022/06/28 12:19:01;;;;;;;2.47;1.40;;;26.90;71.20;;;;;;5095928;28;20171;-70
2022/06/28 12:21:28;;;;;;;2.03;1.42;;;26.10;82.50;;;;;;5105207;28;20182;-69
2022/06/28 12:23:56;;;;;;;1.65;1.55;;;25.80;99.30;;;;;;5092806;28;20218;-69
2022/06/28 12:26:43;;;;;;;6.13;1.75;;;26.00;99.90;;;;;;5086277;28;20202;-69
2022/06/28 12:29:09;;;;;;;3.60;1.60;;;26.60;99.90;;;;;;5081381;28;20258;-69
2022/06/28 12:31:35;;;;;;;4.38;1.80;;;26.90;97.50;;;;;;5098379;28;20216;-68
2022/06/28 12:34:06;;;;;;;2.20;1.73;;;27.10;92.90;;;;;;5087416;28;20687;-69
2022/06/28 12:36:31;;;;;;;1.45;1.30;;;27.10;94.30;;;;;;5084343;28;20213;-69
2022/06/28 12:38:57;;;;;;;3.45;1.42;;;27.00;92.90;;;;;;5098665;28;20596;-70
2022/06/28 12:41:22;;;;;;;3.30;1.85;;;27.00;93.30;;;;;;5095161;28;20167;-71
2022/06/28 12:43:48;;;;;;;2.22;1.50;;;27.40;93.10;;;;;;5097521;28;20232;-68
2022/06/28 12:46:14;;;;;;;3.22;1.48;;;27.50;93.10;;;;;;5101811;28;20236;-69
2022/06/28 12:48:39;;;;;;;1.60;1.40;;;27.60;91.00;;;;;;5093514;28;20653;-69
2022/06/28 12:51:05;;;;;;;1.83;1.60;;;27.20;89.20;;;;;;5090792;28;20207;-69
2022/06/28 12:53:30;;;;;;;1.30;1.20;;;27.20;91.80;;;;;;5092002;28;20167;-69
2022/06/28 12:55:56;;;;;;;1.60;1.45;;;27.50;99.90;;;;;;5089868;28;20211;-69
2022/06/28 12:58:21;;;;;;;2.17;1.70;;;27.10;88.00;;;;;;5090431;28;20168;-68
2022/06/28 13:00:48;;;;;;;5.25;1.48;;;27.00;93.10;;;;;;5089927;28;20172;-70
2022/06/28 13:03:13;;;;;;;2.92;1.50;;;26.20;95.70;;;;;;5091178;28;20172;-68
2022/06/28 13:05:39;;;;;;;2.92;1.52;;;25.60;99.90;;;;;;5091886;28;20172;-71
2022/06/28 13:08:06;;;;;;;2.55;1.25;;;25.70;99.90;;;;;;5091309;28;20277;-70